KMER

Castle Airport

Atwater, California, USA
KMER 251720Z 2518/2618 34009KT P6SM BKN200 AMD NOT SKED
Issued Valid From Valid To
Apr-25 @ 17:20 UTC
(53 minutes ago)
Apr-25 @ 18:00 UTC
(13 minutes ago)
Apr-26 @ 18:00 UTC
(in 24 hours)
Apr-25 @ 18:00 to Apr-26 @ 18:00
KMER 251720Z 2518/2618 34009KT P6SM BKN200 AMD NOT SKED
Wind Visibility Clouds
340° at 9 knots Greater than 6 miles
  • Broken at 20,000' AGL
KMER 251720Z 2518/2618 34009KT P6SM BKN200 AMD NOT SKED
Issued Apr-25 @ 17:20 UTC
(53 minutes ago)
Valid From Apr-25 @ 18:00 UTC
(13 minutes ago)
Valid To Apr-26 @ 18:00 UTC
(in 24 hours)
Apr-25 @ 18:00 - Apr-26 @ 18:00
Wind Visibility
340° at 9 knots Greater than 6 miles
Clouds
  • Broken at 20,000' AGL